Time;durP1;ratioP1;P1;durP2;ratioP2;P2;SDS_P1;SDS_P2;PMS_P1;PMS_P2;Temp;Humidity;BMP_temperature;BMP_pressure;BME280_temperature;BME280_humidity;BME280_pressure;Samples;Min_cycle;Max_cycle;Signal;HPM_P1;HPM_P2
2022/10/30 00:00:39;;;;;;;;;;;;;;;14.63;99.06;99525.20;1771148;79;20112;-50
2022/10/30 00:03:10;;;;;;;;;;;;;;;14.63;99.05;99518.58;1766841;80;20207;-51
2022/10/30 00:05:43;;;;;;;;;;;;;;;14.62;99.37;99513.74;1760614;80;20436;-48
2022/10/30 00:08:12;;;;;;;;;;;;;;;14.62;98.90;99516.88;1770725;79;20105;-48
2022/10/30 00:10:38;;;;;;;;;;;;;;;14.59;99.57;99514.81;1768889;80;20433;-47
2022/10/30 00:13:05;;;;;;;;;;;;;;;14.59;99.83;99514.81;1769121;80;20461;-50
2022/10/30 00:15:32;;;;;;;;;;;;;;;14.58;99.60;99513.10;1768011;80;20113;-46
2022/10/30 00:17:59;;;;;;;;;;;;;;;14.60;99.17;99507.71;1768860;79;20211;-47
2022/10/30 00:20:25;;;;;;;;;;;;;;;14.59;99.34;99507.36;1765713;80;20112;-48
2022/10/30 00:22:52;;;;;;;;;;;;;;;14.57;99.53;99502.16;1761869;80;20398;-52
2022/10/30 00:25:19;;;;;;;;;;;;;;;14.58;99.16;99509.62;1758929;80;20104;-51
2022/10/30 00:27:45;;;;;;;;;;;;;;;14.57;99.17;99502.59;1766067;80;20135;-48
2022/10/30 00:30:14;;;;;;;;;;;;;;;14.53;99.78;99513.85;1760165;80;20111;-50
2022/10/30 00:32:41;;;;;;;;;;;;;;;14.53;99.22;99515.66;1764575;80;20109;-48
2022/10/30 00:35:09;;;;;;;;;;;;;;;14.52;99.17;99510.86;1761945;80;20128;-50
2022/10/30 00:37:36;;;;;;;;;;;;;;;14.50;99.37;99501.34;1760016;79;20141;-46
2022/10/30 00:40:03;;;;;;;;;;;;;;;14.48;99.44;99497.47;1779850;80;20136;-50
2022/10/30 00:42:30;;;;;;;;;;;;;;;14.45;99.61;99498.99;1759787;79;20100;-47
2022/10/30 00:44:57;;;;;;;;;;;;;;;14.43;99.47;99504.87;1762573;80;20176;-49
2022/10/30 00:47:32;;;;;;;;;;;;;;;14.42;99.98;99516.39;1773794;80;20111;-51
2022/10/30 00:50:09;;;;;;;;;;;;;;;14.41;99.90;99518.68;1774787;79;20112;-50
2022/10/30 00:52:39;;;;;;;;;;;;;;;14.40;99.89;99527.07;1767173;80;20183;-48
2022/10/30 00:55:12;;;;;;;;;;;;;;;14.41;99.48;99522.65;1769634;80;20104;-47
2022/10/30 00:57:39;;;;;;;;;;;;;;;14.39;100.00;99525.39;1761509;80;20353;-47
2022/10/30 01:00:07;;;;;;;;;;;;;;;14.36;100.00;99523.43;1758307;80;20121;-48
2022/10/30 01:02:34;;;;;;;;;;;;;;;14.39;100.00;99524.55;1767044;80;20112;-46
2022/10/30 01:05:02;;;;;;;;;;;;;;;14.37;99.78;99523.33;1771153;80;20429;-46
2022/10/30 01:07:28;;;;;;;;;;;;;;;14.38;99.55;99521.52;1764495;79;20112;-46
2022/10/30 01:09:55;;;;;;;;;;;;;;;14.38;99.38;99515.75;1751529;80;20109;-46
2022/10/30 01:12:22;;;;;;;;;;;;;;;14.38;99.44;99514.42;1772401;80;20413;-46
2022/10/30 01:14:52;;;;;;;;;;;;;;;14.38;99.79;99510.94;1765382;80;20124;-45
2022/10/30 01:17:38;;;;;;;;;;;;;;;14.38;99.79;99523.69;1750286;80;20378;-45
2022/10/30 01:20:26;;;;;;;;;;;;;;;14.40;99.29;99524.91;1755341;80;20120;-45
2022/10/30 01:23:05;;;;;;;;;;;;;;;14.41;99.66;99520.00;1781194;80;20104;-47
2022/10/30 01:26:01;;;;;;;;;;;;;;;14.40;99.42;99521.78;1755705;80;20526;-57
2022/10/30 01:28:35;;;;;;;;;;;;;;;14.38;99.63;99518.88;1753008;80;20108;-47
2022/10/30 01:31:22;;;;;;;;;;;;;;;14.37;99.90;99507.91;1764340;80;20429;-49
2022/10/30 01:34:04;;;;;;;;;;;;;;;14.36;99.42;99512.36;1763518;80;20409;-49
2022/10/30 01:36:34;;;;;;;;;;;;;;;14.34;99.87;99511.63;1761255;80;20437;-46
2022/10/30 01:39:12;;;;;;;;;;;;;;;14.34;99.61;99506.81;1766388;80;20532;-49
2022/10/30 01:41:39;;;;;;;;;;;;;;;14.33;99.84;99509.91;1766822;80;20150;-46
2022/10/30 01:44:12;;;;;;;;;;;;;;;14.36;99.34;99507.55;1764282;80;20437;-48
2022/10/30 01:47:08;;;;;;;;;;;;;;;14.34;99.24;99501.04;1776792;80;20104;-47
2022/10/30 01:50:00;;;;;;;;;;;;;;;14.33;99.88;99499.81;1762657;80;20420;-49
2022/10/30 01:52:43;;;;;;;;;;;;;;;14.33;99.75;99498.49;1770632;80;20104;-46
2022/10/30 01:55:28;;;;;;;;;;;;;;;14.31;100.00;99501.72;1755966;79;20457;-46
2022/10/30 01:57:58;;;;;;;;;;;;;;;14.30;100.00;99501.37;1759463;80;20104;-51
2022/10/30 02:00:26;;;;;;;;;;;;;;;14.31;100.00;99498.59;1763537;80;20144;-47
2022/10/30 02:02:53;;;;;;;;;;;;;;;14.31;100.00;99497.27;1780995;79;20119;-48
2022/10/30 02:05:36;;;;;;;;;;;;;;;14.31;100.00;99497.27;1769729;80;20116;-48
2022/10/30 02:08:03;;;;;;;;;;;;;;;14.34;99.85;99501.52;1753783;80;20105;-47
2022/10/30 02:10:30;;;;;;;;;;;;;;;14.32;100.00;99496.33;1767422;80;20108;-47
2022/10/30 02:12:57;;;;;;;;;;;;;;;14.31;100.00;99499.08;1773359;80;20103;-48
2022/10/30 02:15:26;;;;;;;;;;;;;;;14.28;100.00;99493.53;1767364;80;20100;-48
2022/10/30 02:17:55;;;;;;;;;;;;;;;14.29;100.00;99489.08;1761678;80;20175;-47
2022/10/30 02:20:23;;;;;;;;;;;;;;;14.27;100.00;99495.79;1769395;79;20116;-46
2022/10/30 02:22:50;;;;;;;;;;;;;;;14.27;100.00;99505.53;1768687;80;20111;-46
2022/10/30 02:25:17;;;;;;;;;;;;;;;14.25;100.00;99496.86;1764218;80;20127;-46
2022/10/30 02:27:44;;;;;;;;;;;;;;;14.26;100.00;99493.24;1761282;80;20206;-49
2022/10/30 02:30:11;;;;;;;;;;;;;;;14.24;100.00;99481.44;1764493;80;20112;-48
2022/10/30 02:32:38;;;;;;;;;;;;;;;14.24;100.00;99485.89;1755662;80;20105;-47
2022/10/30 02:35:05;;;;;;;;;;;;;;;14.21;100.00;99498.86;1782540;80;20112;-48
2022/10/30 02:37:34;;;;;;;;;;;;;;;14.19;100.00;99488.38;1774674;79;20123;-48
2022/10/30 02:40:02;;;;;;;;;;;;;;;14.19;100.00;99500.28;1771605;80;20112;-47
2022/10/30 02:42:29;;;;;;;;;;;;;;;14.19;100.00;99496.80;1755011;78;20109;-46
2022/10/30 02:44:56;;;;;;;;;;;;;;;14.19;100.00;99492.34;1775645;80;20105;-48
2022/10/30 02:47:23;;;;;;;;;;;;;;;14.19;100.00;99493.67;1750809;81;20115;-47
2022/10/30 02:49:50;;;;;;;;;;;;;;;14.20;100.00;99491.86;1733576;81;20136;-47
2022/10/30 02:52:16;;;;;;;;;;;;;;;14.21;100.00;99489.12;1755289;80;20114;-48
2022/10/30 02:54:44;;;;;;;;;;;;;;;14.21;100.00;99486.95;1777613;80;20342;-48
2022/10/30 02:57:13;;;;;;;;;;;;;;;14.23;100.00;99488.18;1785353;78;20115;-50
2022/10/30 02:59:40;;;;;;;;;;;;;;;14.23;100.00;99482.89;1782448;78;20141;-48
2022/10/30 03:02:07;;;;;;;;;;;;;;;14.26;100.00;99482.66;1790489;78;20105;-48
2022/10/30 03:04:34;;;;;;;;;;;;;;;14.25;100.00;99480.50;1784443;78;20109;-47
2022/10/30 03:07:00;;;;;;;;;;;;;;;14.23;100.00;99480.25;1782288;79;20136;-46
2022/10/30 03:09:28;;;;;;;;;;;;;;;14.24;100.00;99479.28;1767299;80;20112;-46
2022/10/30 03:11:54;;;;;;;;;;;;;;;14.24;100.00;99478.80;1777893;78;20204;-47
2022/10/30 03:14:21;;;;;;;;;;;;;;;14.24;100.00;99481.44;1777451;79;20113;-48
2022/10/30 03:16:47;;;;;;;;;;;;;;;14.23;100.00;99483.73;1752241;80;20105;-46
2022/10/30 03:19:14;;;;;;;;;;;;;;;14.20;100.00;99476.83;1763032;80;20113;-48
2022/10/30 03:21:41;;;;;;;;;;;;;;;14.18;100.00;99477.41;1762252;80;20136;-48
2022/10/30 03:24:07;;;;;;;;;;;;;;;14.20;100.00;99479.96;1740837;80;20105;-47
2022/10/30 03:26:34;;;;;;;;;;;;;;;14.18;100.00;99482.70;1756603;80;20129;-49
2022/10/30 03:29:00;;;;;;;;;;;;;;;14.18;100.00;99487.99;1758848;80;20173;-49
2022/10/30 03:31:29;;;;;;;;;;;;;;;14.16;100.00;99493.86;1755576;80;20425;-46
2022/10/30 03:33:56;;;;;;;;;;;;;;;14.18;100.00;99489.31;1748692;80;20105;-47
2022/10/30 03:36:24;;;;;;;;;;;;;;;14.19;100.00;99492.34;1749169;80;20141;-49
2022/10/30 03:38:50;;;;;;;;;;;;;;;14.17;100.00;99496.89;1755129;80;20124;-47
2022/10/30 03:41:17;;;;;;;;;;;;;;;14.17;100.00;99502.64;1756674;80;20105;-47
2022/10/30 03:43:43;;;;;;;;;;;;;;;14.16;100.00;99500.96;1767721;80;20104;-51
2022/10/30 03:46:10;;;;;;;;;;;;;;;14.16;100.00;99501.80;1750143;80;20109;-46
2022/10/30 03:48:37;;;;;;;;;;;;;;;14.16;100.00;99508.41;1766234;80;20104;-46
2022/10/30 03:51:03;;;;;;;;;;;;;;;14.15;100.00;99517.31;1760196;80;20137;-50
2022/10/30 03:53:30;;;;;;;;;;;;;;;14.16;100.00;99516.83;1761626;80;20137;-48
2022/10/30 03:55:59;;;;;;;;;;;;;;;14.15;100.00;99523.92;1752456;80;20113;-47
2022/10/30 03:58:27;;;;;;;;;;;;;;;14.16;100.00;99541.95;1748402;80;20157;-50
2022/10/30 04:00:54;;;;;;;;;;;;;;;14.18;100.00;99540.05;1750487;80;20120;-49
2022/10/30 04:03:20;;;;;;;;;;;;;;;14.23;100.00;99529.18;1746292;80;20113;-49
2022/10/30 04:05:49;;;;;;;;;;;;;;;14.20;100.00;99532.38;1757293;80;20113;-47
2022/10/30 04:08:16;;;;;;;;;;;;;;;14.18;100.00;99527.66;1750144;80;20098;-47
2022/10/30 04:10:43;;;;;;;;;;;;;;;14.17;100.00;99517.19;1741132;80;20104;-51
2022/10/30 04:13:11;;;;;;;;;;;;;;;14.16;100.00;99520.31;1749838;80;20105;-49
2022/10/30 04:15:38;;;;;;;;;;;;;;;14.16;100.00;99517.67;1742587;80;20412;-50
2022/10/30 04:18:05;;;;;;;;;;;;;;;14.17;100.00;99515.41;1750970;80;20097;-45
2022/10/30 04:20:32;;;;;;;;;;;;;;;14.20;100.00;99508.56;1744200;80;20454;-48
2022/10/30 04:23:02;;;;;;;;;;;;;;;14.21;100.00;99508.12;1740429;80;20421;-49
2022/10/30 04:25:29;;;;;;;;;;;;;;;14.19;100.00;99508.70;1758547;80;20104;-48
2022/10/30 04:27:56;;;;;;;;;;;;;;;14.15;100.00;99518.64;1761250;80;20214;-48
2022/10/30 04:30:24;;;;;;;;;;;;;;;14.12;100.00;99512.22;1762160;80;20112;-50
2022/10/30 04:32:53;;;;;;;;;;;;;;;14.12;100.00;99514.02;1754406;80;20105;-49
2022/10/30 04:35:25;;;;;;;;;;;;;;;14.08;100.00;99519.98;1750240;80;20104;-49
2022/10/30 04:38:00;;;;;;;;;;;;;;;14.08;100.00;99518.67;1757117;80;20134;-49
2022/10/30 04:40:29;;;;;;;;;;;;;;;14.10;100.00;99522.05;1755704;80;20144;-49
2022/10/30 04:42:56;;;;;;;;;;;;;;;14.10;100.00;99519.86;1737390;80;20499;-50
2022/10/30 04:45:22;;;;;;;;;;;;;;;14.09;100.00;99518.19;1757587;80;20433;-46
2022/10/30 04:47:49;;;;;;;;;;;;;;;14.11;100.00;99527.70;1756046;80;20445;-49
2022/10/30 04:50:17;;;;;;;;;;;;;;;14.13;100.00;99518.34;1737633;80;20398;-47
2022/10/30 04:52:44;;;;;;;;;;;;;;;14.12;100.00;99521.47;1745313;80;20113;-51
2022/10/30 04:55:10;;;;;;;;;;;;;;;14.10;100.00;99500.89;1764104;80;20136;-49
2022/10/30 04:57:37;;;;;;;;;;;;;;;14.08;100.00;99480.33;1768933;80;20093;-48
2022/10/30 05:00:05;;;;;;;;;;;;;;;14.06;100.00;99478.26;1754188;80;20145;-51
2022/10/30 05:02:35;;;;;;;;;;;;;;;14.05;100.00;99464.66;1753755;80;20113;-49
2022/10/30 05:05:02;;;;;;;;;;;;;;;14.02;100.00;99470.14;1755831;80;20112;-51
2022/10/30 05:07:29;;;;;;;;;;;;;;;13.98;100.00;99472.13;1759029;80;20108;-51
2022/10/30 05:09:55;;;;;;;;;;;;;;;13.95;100.00;99485.58;1763042;80;20113;-50
2022/10/30 05:12:22;;;;;;;;;;;;;;;13.94;100.00;99488.32;1746454;80;20100;-48
2022/10/30 05:14:48;;;;;;;;;;;;;;;13.91;100.00;99479.27;1750305;80;20191;-49
2022/10/30 05:17:15;;;;;;;;;;;;;;;13.91;100.00;99475.30;1747463;80;20129;-48
2022/10/30 05:19:41;;;;;;;;;;;;;;;13.93;100.00;99494.06;1748104;80;20511;-51
2022/10/30 05:22:09;;;;;;;;;;;;;;;13.92;100.00;99491.55;1763032;80;20410;-49
2022/10/30 05:24:35;;;;;;;;;;;;;;;13.91;100.00;99494.64;1765029;80;20104;-49
2022/10/30 05:27:02;;;;;;;;;;;;;;;13.91;100.00;99481.91;1752297;80;20105;-50
2022/10/30 05:29:29;;;;;;;;;;;;;;;13.91;100.00;99480.58;1767436;80;20493;-48
2022/10/30 05:31:55;;;;;;;;;;;;;;;13.89;100.00;99472.75;1755094;80;20564;-48
2022/10/30 05:34:22;;;;;;;;;;;;;;;13.90;100.00;99474.91;1755017;80;20430;-48
2022/10/30 05:36:48;;;;;;;;;;;;;;;13.89;100.00;99493.06;1742956;80;20141;-48
2022/10/30 05:39:15;;;;;;;;;;;;;;;13.89;100.00;99491.73;1748755;80;20096;-47
2022/10/30 05:41:41;;;;;;;;;;;;;;;13.90;100.00;99497.37;1756391;80;20128;-49
2022/10/30 05:44:08;;;;;;;;;;;;;;;13.89;100.00;99493.06;1745272;80;20105;-50
2022/10/30 05:46:35;;;;;;;;;;;;;;;13.90;100.00;99492.96;1750035;80;20109;-46
2022/10/30 05:49:02;;;;;;;;;;;;;;;13.90;100.00;99498.25;1748732;80;20407;-48
2022/10/30 05:51:30;;;;;;;;;;;;;;;13.88;100.00;99483.42;1742455;80;20097;-49
2022/10/30 05:53:56;;;;;;;;;;;;;;;13.87;100.00;99489.67;1765331;80;20105;-50
2022/10/30 05:56:23;;;;;;;;;;;;;;;13.87;100.00;99491.00;1755644;80;20105;-48
2022/10/30 05:58:49;;;;;;;;;;;;;;;13.89;100.00;99490.41;1762746;80;20121;-46
2022/10/30 06:01:16;;;;;;;;;;;;;;;13.90;100.00;99486.80;1746386;80;20105;-49
2022/10/30 06:03:43;;;;;;;;;;;;;;;13.89;100.00;99496.55;1757462;80;20113;-52
2022/10/30 06:06:10;;;;;;;;;;;;;;;13.89;100.00;99500.98;1771641;80;20135;-50
2022/10/30 06:08:36;;;;;;;;;;;;;;;13.88;100.00;99508.08;1749906;80;20100;-49
2022/10/30 06:11:03;;;;;;;;;;;;;;;13.90;100.00;99518.53;1759827;80;20100;-47
2022/10/30 06:13:29;;;;;;;;;;;;;;;13.93;100.00;99523.63;1758977;80;20117;-50
2022/10/30 06:15:56;;;;;;;;;;;;;;;13.96;100.00;99526.91;1756742;80;20104;-50
2022/10/30 06:18:23;;;;;;;;;;;;;;;14.03;100.00;99536.63;1759496;80;20528;-50
2022/10/30 06:20:49;;;;;;;;;;;;;;;14.05;100.00;99520.18;1747693;80;20686;-47
2022/10/30 06:23:16;;;;;;;;;;;;;;;14.08;100.00;99515.16;1751830;80;20413;-49
2022/10/30 06:25:43;;;;;;;;;;;;;;;14.11;100.00;99517.12;1751435;80;20452;-50
2022/10/30 06:28:10;;;;;;;;;;;;;;;14.12;100.00;99522.80;1764040;80;20441;-47
2022/10/30 06:30:37;;;;;;;;;;;;;;;14.15;100.00;99522.60;1763531;80;20408;-50
2022/10/30 06:33:04;;;;;;;;;;;;;;;14.16;100.00;99526.92;1759036;80;20497;-49
2022/10/30 06:35:31;;;;;;;;;;;;;;;14.19;100.00;99524.09;1759381;80;20154;-51
2022/10/30 06:38:00;;;;;;;;;;;;;;;14.21;100.00;99527.47;1753977;80;20164;-50
2022/10/30 06:40:28;;;;;;;;;;;;;;;14.25;100.00;99516.21;1761176;80;20130;-51
2022/10/30 06:42:56;;;;;;;;;;;;;;;14.29;100.00;99503.63;1756990;80;20180;-48
2022/10/30 06:45:23;;;;;;;;;;;;;;;14.31;100.00;99510.50;1744019;80;20113;-52
2022/10/30 06:47:50;;;;;;;;;;;;;;;14.37;100.00;99519.81;1775655;79;20103;-47
2022/10/30 06:50:19;;;;;;;;;;;;;;;14.38;100.00;99525.49;1780769;78;20134;-51
2022/10/30 06:52:45;;;;;;;;;;;;;;;14.41;100.00;99521.33;1785318;79;20119;-48
2022/10/30 06:55:12;;;;;;;;;;;;;;;14.46;100.00;99536.87;1777377;80;20221;-49
2022/10/30 06:57:39;;;;;;;;;;;;;;;14.48;100.00;99539.81;1787263;78;20119;-51
2022/10/30 07:00:06;;;;;;;;;;;;;;;14.50;100.00;99541.87;1786663;78;20134;-50
2022/10/30 07:02:33;;;;;;;;;;;;;;;14.51;100.00;99543.55;1804528;79;20102;-50
2022/10/30 07:05:00;;;;;;;;;;;;;;;14.53;100.00;99544.29;1792900;79;20111;-48
2022/10/30 07:07:26;;;;;;;;;;;;;;;14.52;100.00;99539.97;1787820;79;20450;-48
2022/10/30 07:09:53;;;;;;;;;;;;;;;14.53;100.00;99540.31;1762441;79;20094;-48
2022/10/30 07:12:20;;;;;;;;;;;;;;;14.52;100.00;99537.31;1782098;79;20182;-47
2022/10/30 07:14:46;;;;;;;;;;;;;;;14.52;100.00;99539.13;1772680;79;20134;-48
2022/10/30 07:17:13;;;;;;;;;;;;;;;14.51;100.00;99530.31;1782657;79;20133;-47
2022/10/30 07:19:39;;;;;;;;;;;;;;;14.50;100.00;99532.61;1766285;79;20119;-46
2022/10/30 07:22:06;;;;;;;;;;;;;;;14.53;100.00;99532.86;1739580;81;20106;-48
2022/10/30 07:24:32;;;;;;;;;;;;;;;14.55;100.00;99526.53;1784078;79;20276;-49
2022/10/30 07:26:59;;;;;;;;;;;;;;;14.55;100.00;99535.80;1784893;78;20110;-48
2022/10/30 07:29:26;;;;;;;;;;;;;;;14.57;100.00;99539.22;1757921;80;20521;-49
2022/10/30 07:31:52;;;;;;;;;;;;;;;14.61;100.00;99556.19;1729040;82;20436;-48
2022/10/30 07:34:19;;;;;;;;;;;;;;;14.62;100.00;99562.70;1775041;80;20407;-47
2022/10/30 07:36:45;;;;;;;;;;;;;;;14.63;100.00;99559.13;1778883;80;20430;-48
2022/10/30 07:39:12;;;;;;;;;;;;;;;14.70;100.00;99562.20;1781795;79;20411;-49
2022/10/30 07:41:38;;;;;;;;;;;;;;;14.71;99.94;99560.75;1771155;80;20473;-48
2022/10/30 07:44:05;;;;;;;;;;;;;;;14.74;99.83;99561.88;1779100;79;20439;-48
2022/10/30 07:46:31;;;;;;;;;;;;;;;14.74;99.66;99561.04;1787452;78;20674;-48
2022/10/30 07:48:58;;;;;;;;;;;;;;;14.75;99.31;99564.04;1808428;78;20404;-48
2022/10/30 07:51:25;;;;;;;;;;;;;;;14.73;98.96;99560.66;1796987;78;20407;-48
2022/10/30 07:53:51;;;;;;;;;;;;;;;14.76;99.06;99559.13;1772019;79;20415;-48
2022/10/30 07:56:18;;;;;;;;;;;;;;;14.75;98.92;99553.45;1793746;79;20529;-47
2022/10/30 07:58:44;;;;;;;;;;;;;;;14.78;98.93;99555.90;1777018;80;20407;-50
2022/10/30 08:01:11;;;;;;;;;;;;;;;14.75;98.74;99551.67;1781539;79;20403;-49
2022/10/30 08:03:37;;;;;;;;;;;;;;;14.81;99.20;99545.11;1775943;79;20424;-50
2022/10/30 08:06:04;;;;;;;;;;;;;;;14.89;98.87;99524.23;1778661;79;20411;-51
2022/10/30 08:08:31;;;;;;;;;;;;;;;14.92;98.10;99516.08;1782948;79;20115;-52
2022/10/30 08:10:58;;;;;;;;;;;;;;;14.89;97.90;99518.93;1775427;80;20110;-52
2022/10/30 08:13:24;;;;;;;;;;;;;;;14.90;98.03;99519.31;1787416;78;20094;-47
2022/10/30 08:15:51;;;;;;;;;;;;;;;14.93;97.77;99531.00;1776628;79;20985;-49
2022/10/30 08:18:18;;;;;;;;;;;;;;;14.96;97.92;99542.70;1793088;79;20102;-49
2022/10/30 08:20:49;;;;;;;;;;;;;;;15.01;97.47;99556.09;1793723;78;20095;-50
2022/10/30 08:23:18;;;;;;;;;;;;;;;14.92;96.21;99558.45;1807359;79;20440;-49
2022/10/30 08:25:44;;;;;;;;;;;;;;;14.92;95.86;99566.39;1797242;78;20111;-48
2022/10/30 08:28:11;;;;;;;;;;;;;;;14.94;96.13;99561.00;1789437;78;20102;-50
2022/10/30 08:30:37;;;;;;;;;;;;;;;14.97;96.52;99556.78;1779993;79;20110;-50
2022/10/30 08:33:06;;;;;;;;;;;;;;;14.99;95.99;99561.53;1782505;78;20111;-51
2022/10/30 08:35:33;;;;;;;;;;;;;;;15.02;95.67;99568.41;1791197;78;20169;-50
2022/10/30 08:38:01;;;;;;;;;;;;;;;15.07;95.65;99572.91;1776612;79;20095;-50
2022/10/30 08:40:28;;;;;;;;;;;;;;;15.13;96.10;99573.79;1772148;79;20142;-51
2022/10/30 08:42:56;;;;;;;;;;;;;;;15.09;94.72;99568.34;1780149;79;20122;-49
2022/10/30 08:45:24;;;;;;;;;;;;;;;15.12;95.24;99553.58;1777262;79;20095;-51
2022/10/30 08:47:58;;;;;;;;;;;;;;;15.16;95.48;99558.53;1787933;79;20161;-52
2022/10/30 08:50:25;;;;;;;;;;;;;;;15.24;95.84;99560.64;1775092;79;20110;-50
2022/10/30 08:52:51;;;;;;;;;;;;;;;15.33;96.09;99556.50;1789245;78;20129;-49
2022/10/30 08:55:18;;;;;;;;;;;;;;;15.40;95.38;99557.76;1794880;79;20104;-52
2022/10/30 08:57:45;;;;;;;;;;;;;;;15.50;95.28;99551.34;1782694;79;20204;-49
2022/10/30 09:00:11;;;;;;;;;;;;;;;15.65;95.74;99556.85;1798070;78;20110;-51
2022/10/30 09:02:38;;;;;;;;;;;;;;;15.70;94.48;99549.42;1795949;78;20131;-50
2022/10/30 09:05:06;;;;;;;;;;;;;;;15.76;94.66;99552.63;1784917;78;20111;-51
2022/10/30 09:07:33;;;;;;;;;;;;;;;15.72;92.75;99555.45;1798139;79;20110;-51
2022/10/30 09:09:59;;;;;;;;;;;;;;;15.68;92.48;99559.30;1789340;78;20110;-52
2022/10/30 09:12:26;;;;;;;;;;;;;;;15.68;92.07;99561.07;1796442;79;20098;-51
2022/10/30 09:14:53;;;;;;;;;;;;;;;15.70;92.42;99554.72;1798057;78;20098;-52
2022/10/30 09:17:19;;;;;;;;;;;;;;;15.73;91.93;99551.86;1782243;79;20154;-53
2022/10/30 09:19:46;;;;;;;;;;;;;;;15.80;92.67;99554.08;1782382;79;20126;-51
2022/10/30 09:22:12;;;;;;;;;;;;;;;15.90;93.21;99553.30;1781554;78;20436;-50
2022/10/30 09:24:39;;;;;;;;;;;;;;;15.91;91.29;99559.44;1785819;78;20110;-51
2022/10/30 09:27:06;;;;;;;;;;;;;;;15.96;91.69;99554.66;1775117;79;20126;-52
2022/10/30 09:29:34;;;;;;;;;;;;;;;16.02;92.37;99555.52;1779128;79;20102;-49
2022/10/30 09:32:03;;;;;;;;;;;;;;;16.02;90.83;99548.05;1783660;79;20103;-51
2022/10/30 09:34:30;;;;;;;;;;;;;;;16.09;91.79;99544.82;1806989;78;20395;-50
2022/10/30 09:36:56;;;;;;;;;;;;;;;16.12;91.57;99547.25;1787619;79;20434;-51
2022/10/30 09:39:24;;;;;;;;;;;;;;;16.21;91.97;99554.14;1804170;78;20425;-50
2022/10/30 09:42:06;;;;;;;;;;;;;;;16.24;91.29;99559.23;1791536;78;20103;-49
2022/10/30 09:44:56;;;;;;;;;;;;;;;16.28;91.71;99560.69;1800055;78;20137;-48
2022/10/30 09:47:41;;;;;;;;;;;;;;;16.35;91.88;99551.80;1811798;78;20094;-48
2022/10/30 09:50:15;;;;;;;;;;;;;;;16.29;89.98;99552.63;1777311;80;20124;-49
2022/10/30 09:52:45;;;;;;;;;;;;;;;16.31;90.01;99553.84;1792617;79;20399;-50
2022/10/30 09:55:18;;;;;;;;;;;;;;;16.36;90.66;99551.69;1768125;78;20169;-50
2022/10/30 09:57:49;;;;;;;;;;;;;;;16.39;90.22;99558.11;1782146;78;20411;-50
2022/10/30 10:00:19;;;;;;;;;;;;;;;16.42;90.44;99565.81;1789596;78;20103;-52
2022/10/30 10:03:01;;;;;;;;;;;;;;;16.40;90.13;99560.27;1797937;79;20133;-49
2022/10/30 10:05:48;;;;;;;;;;;;;;;16.37;89.13;99563.14;1779558;79;20090;-49
2022/10/30 10:08:19;;;;;;;;;;;;;;;;;;1796770;78;20126;-50
2022/10/30 10:10:48;;;;;;;;;;;;;;;16.37;89.83;99560.48;1790603;79;20114;-48
2022/10/30 10:13:27;;;;;;;;;;;;;;;16.41;89.96;99556.63;1793351;78;20125;-48
2022/10/30 10:15:57;;;;;;;;;;;;;;;16.45;90.01;99562.94;1778760;79;20111;-49
2022/10/30 10:18:30;;;;;;;;;;;;;;;16.51;89.57;99559.80;1786575;79;20111;-52
2022/10/30 10:21:00;;;;;;;;;;;;;;;16.58;89.34;99562.02;1786008;79;20200;-50
2022/10/30 10:23:33;;;;;;;;;;;;;;;16.72;89.45;99556.96;1780004;79;20102;-49
2022/10/30 10:26:04;;;;;;;;;;;;;;;16.81;88.43;99553.63;1796886;78;20109;-51
2022/10/30 10:28:46;;;;;;;;;;;;;;;16.93;88.02;99551.36;1795805;78;20427;-52
2022/10/30 10:31:16;;;;;;;;;;;;;;;16.95;87.69;99545.94;1779378;79;20431;-51
2022/10/30 10:33:59;;;;;;;;;;;;;;;16.94;87.18;99546.91;1788047;79;20110;-49
2022/10/30 10:36:47;;;;;;;;;;;;;;;16.96;86.96;99544.98;1790899;79;20103;-49
2022/10/30 10:39:29;;;;;;;;;;;;;;;16.94;86.79;99541.60;1777296;79;20173;-49
2022/10/30 10:42:29;;;;;;;;;;;;;;;16.96;87.59;99547.64;1788817;78;20107;-51
2022/10/30 10:45:18;;;;;;;;;;;;;;;16.99;87.74;99551.36;1791861;78;20109;-51
2022/10/30 10:47:53;;;;;;;;;;;;;;;17.03;87.17;99542.21;1788662;78;20110;-50
2022/10/30 10:50:26;;;;;;;;;;;;;;;17.00;85.57;99539.78;1778573;79;20099;-51
2022/10/30 10:52:56;;;;;;;;;;;;;;;17.04;86.20;99539.90;1779966;79;20102;-50
2022/10/30 10:55:26;;;;;;;;;;;;;;;17.04;85.53;99538.57;1779392;79;20371;-51
2022/10/30 10:57:56;;;;;;;;;;;;;;;17.12;86.20;99537.50;1772850;79;20130;-51
2022/10/30 11:00:25;;;;;;;;;;;;;;;17.15;85.71;99530.59;1791775;79;20362;-49
2022/10/30 11:03:09;;;;;;;;;;;;;;;17.20;85.45;99527.09;1793642;79;20104;-50
2022/10/30 11:05:42;;;;;;;;;;;;;;;17.24;85.09;99527.20;1774213;79;20185;-51
2022/10/30 11:08:26;;;;;;;;;;;;;;;17.27;84.23;99532.29;1778813;79;20106;-49
2022/10/30 11:10:59;;;;;;;;;;;;;;;17.36;84.61;99525.40;1782684;79;20093;-49
2022/10/30 11:13:37;;;;;;;;;;;;;;;17.46;84.78;99520.18;1779097;79;20811;-51
2022/10/30 11:16:16;;;;;;;;;;;;;;;17.55;84.52;99516.78;1794862;78;20110;-48
2022/10/30 11:18:43;;;;;;;;;;;;;;;17.56;82.33;99513.16;1807404;78;20184;-51
2022/10/30 11:21:15;;;;;;;;;;;;;;;17.61;82.21;99510.98;1778066;80;20114;-50
2022/10/30 11:23:44;;;;;;;;;;;;;;;17.65;82.10;99503.11;1785561;79;20110;-51
2022/10/30 11:26:21;;;;;;;;;;;;;;;17.70;81.92;99512.05;1786424;79;20118;-51
2022/10/30 11:29:01;;;;;;;;;;;;;;;17.81;83.12;99509.36;1788790;79;20102;-47
2022/10/30 11:31:36;;;;;;;;;;;;;;;17.87;82.13;99508.53;1793440;78;20117;-50
2022/10/30 11:34:19;;;;;;;;;;;;;;;17.92;81.44;99512.96;1777589;79;20091;-52
2022/10/30 11:36:47;;;;;;;;;;;;;;;17.91;81.49;99506.80;1778727;79;20126;-48
2022/10/30 11:39:28;;;;;;;;;;;;;;;17.98;81.69;99508.48;1779272;79;20130;-48
2022/10/30 11:42:12;;;;;;;;;;;;;;;17.94;80.49;99501.24;1783199;79;20110;-51
2022/10/30 11:44:42;;;;;;;;;;;;;;;18.00;80.74;99497.22;1777338;79;20127;-48
2022/10/30 11:47:10;;;;;;;;;;;;;;;18.07;81.94;99495.74;1794247;78;20442;-48
2022/10/30 11:49:54;;;;;;;;;;;;;;;18.07;81.20;99497.08;1805294;78;20126;-49
2022/10/30 11:52:23;;;;;;;;;;;;;;;18.03;79.91;99487.17;1780115;79;20099;-49
2022/10/30 11:55:10;;;;;;;;;;;;;;;17.99;79.59;99487.08;1779728;79;20197;-48
2022/10/30 11:57:42;;;;;;;;;;;;;;;18.06;80.59;99489.22;1787927;79;20396;-50
2022/10/30 12:00:20;;;;;;;;;;;;;;;17.96;79.41;99491.31;1803649;78;20118;-49
2022/10/30 12:02:52;;;;;;;;;;;;;;;18.07;80.64;99483.77;1773759;79;20110;-48
2022/10/30 12:05:28;;;;;;;;;;;;;;;18.11;80.82;99494.51;1779134;79;20094;-49
2022/10/30 12:08:10;;;;;;;;;;;;;;;18.14;80.62;99494.76;1787296;78;20371;-48
2022/10/30 12:10:43;;;;;;;;;;;;;;;18.18;80.56;99487.70;1782780;79;20112;-48
2022/10/30 12:13:12;;;;;;;;;;;;;;;18.21;80.14;99492.78;1799944;79;20201;-51
2022/10/30 12:15:39;;;;;;;;;;;;;;;18.26;79.61;99491.54;1797313;79;20121;-49
2022/10/30 12:18:07;;;;;;;;;;;;;;;18.29;79.12;99483.30;1795542;78;20094;-48
2022/10/30 12:20:36;;;;;;;;;;;;;;;18.34;78.92;99489.92;1779449;79;20428;-49
2022/10/30 12:23:10;;;;;;;;;;;;;;;18.39;79.25;99494.38;1810918;78;20419;-49
2022/10/30 12:25:36;;;;;;;;;;;;;;;18.46;79.82;99480.53;1795835;78;20111;-50
2022/10/30 12:28:06;;;;;;;;;;;;;;;18.42;78.64;99486.61;1785370;78;20178;-51
2022/10/30 12:30:39;;;;;;;;;;;;;;;18.38;79.18;99483.36;1796689;79;20110;-49
2022/10/30 12:33:14;;;;;;;;;;;;;;;18.31;79.10;99484.85;1795852;78;20103;-47
2022/10/30 12:35:53;;;;;;;;;;;;;;;18.26;79.75;99481.73;1785438;79;20193;-51
2022/10/30 12:38:39;;;;;;;;;;;;;;;18.22;79.89;99478.48;1795316;78;20145;-52
2022/10/30 12:41:29;;;;;;;;;;;;;;;18.20;80.20;99478.27;1806785;78;20424;-49
2022/10/30 12:44:09;;;;;;;;;;;;;;;18.14;80.06;99477.45;1779134;79;20395;-49
2022/10/30 12:46:39;;;;;;;;;;;;;;;18.14;80.80;99480.13;1779760;79;20129;-48
2022/10/30 12:49:18;;;;;;;;;;;;;;;18.17;80.89;99482.03;1758434;78;20445;-47
2022/10/30 12:52:11;;;;;;;;;;;;;;;18.18;81.04;99481.05;1776909;79;20947;-47
2022/10/30 12:54:57;;;;;;;;;;;;;;;18.18;81.35;99474.39;1801820;79;20396;-48
2022/10/30 12:57:26;;;;;;;;;;;;;;;18.14;80.65;99464.16;1793551;78;20200;-48